Flight Track Log - Related Links

Times and Time Zones

All times are in EDT time to prevent confusion due to time zone crossing. See the SWA1628 flight status page for this flight to view local times or setup timezone preferences in your user account.

Time Position Orientation Groundspeed Altitude Reporting Facility
EDT Latitude Longitude Course Direction KTS MPH feet Rate Location/Type
Wed 04:06:58 PM 30.5328 -81.7542 314° West 234 269 3,000  Level Jacksonville Center
Wed 04:08:12 PM 30.5942 -81.8258 315° West 260 299 6,600 2,821 Climbing Jacksonville Center
Wed 04:09:12 PM 30.6592 -81.8736 328° Northwest 266 306 9,300 2,800 Climbing Jacksonville Center
Wed 04:10:12 PM 30.7283 -81.9236 328° Northwest 278 320 12,200 2,727 Climbing Jacksonville Center
Wed 04:11:13 PM 30.7997 -81.9758 328° Northwest 290 334 14,800 2,650 Climbing Jacksonville Center
Wed 04:12:12 PM 30.8567 -82.0456 314° West 295 339 17,500 2,300 Climbing Jacksonville Center
Wed 04:13:13 PM 30.9053 -82.1300 304° West 295 339 19,400 1,800 Climbing Jacksonville Center
Wed 04:14:12 PM 30.9558 -82.2217 303° West 317 365 21,100 1,800 Climbing Jacksonville Center
Wed 04:15:13 PM 31.0086 -82.3181 303° West 340 391 23,000 1,686 Climbing Jacksonville Center
Wed 04:16:13 PM 31.0569 -82.4219 299° West 360 414 24,500 1,362 Climbing Jacksonville Center
Wed 04:17:56 PM 31.1661 -82.5806 309° West 367 422 26,700 1,141 Climbing Atlanta Center
Wed 04:18:56 PM 31.2467 -82.6789 314° West 391 450 27,600 650 Climbing Atlanta Center
Wed 04:19:56 PM 31.3269 -82.7822 312° West 415 478 28,000 200 Climbing Atlanta Center
Wed 04:20:56 PM 31.4300 -82.8561 329° Northwest 420 483 28,000  Level Atlanta Center
Wed 04:21:56 PM 31.5533 -82.8958 345° North 432 497 28,000  Level Atlanta Center
Wed 04:22:56 PM 31.6767 -82.9114 354° North 441 507 28,000  Level Atlanta Center
Wed 04:23:56 PM 31.8019 -82.9100 North 441 507 28,000  Level Atlanta Center
Wed 04:24:56 PM 31.9292 -82.9133 359° North 446 513 28,000  Level Atlanta Center
Wed 04:25:56 PM 32.0547 -82.9289 354° North 446 513 28,000  Level Atlanta Center
Wed 04:26:56 PM 32.1639 -82.9936 333° Northwest 435 501 28,000  Level Atlanta Center
Wed 04:27:56 PM 32.2606 -83.0858 321° Northwest 432 497 28,000  Level Atlanta Center
Wed 04:28:56 PM 32.3344 -83.1908 310° West 425 489 28,000  Level Atlanta Center
Wed 04:29:56 PM 32.3769 -83.3183 292° West 418 481 28,000  Level Atlanta Center
Wed 04:30:56 PM 32.4172 -83.4433 291° West 411 473 28,000  Level Atlanta Center
Wed 04:31:56 PM 32.4617 -83.5711 292° West 417 480 28,000  Level Atlanta Center
Wed 04:32:56 PM 32.5372 -83.6792 310° West 417 480 28,000  Level Atlanta Center
Wed 04:33:56 PM 32.6397 -83.7553 328° Northwest 408 470 28,000  Level Atlanta Center
Wed 04:34:56 PM 32.7483 -83.8289 330° Northwest 428 493 28,000  Level Atlanta Center
Wed 04:35:56 PM 32.8550 -83.9053 329° Northwest 438 504 28,000  Level Atlanta Center
Wed 04:36:56 PM 32.9636 -83.9769 331° Northwest 443 510 28,000 1,050 Level Atlanta Center
Wed 04:37:56 PM 33.0678 -84.0511 329° Northwest 443 510 30,100 1,600 Climbing Atlanta Center
Wed 04:38:56 PM 33.1825 -84.1306 330° Northwest 443 510 31,200 1,400 Climbing Atlanta Center
Wed 04:39:56 PM 33.2911 -84.2003 332° Northwest 443 510 32,900 1,400 Climbing Atlanta Center
Wed 04:40:56 PM 33.3911 -84.2753 328° Northwest 437 503 34,000 550 Climbing Atlanta Center
Wed 04:41:56 PM 33.4953 -84.3453 331° Northwest 432 497 34,000  Level Atlanta Center
Wed 04:42:56 PM 33.5828 -84.4053 330° Northwest 432 497 34,000  Level Atlanta Center
Wed 04:43:56 PM 33.7017 -84.4708 335° Northwest 432 497 34,000  Level Atlanta Center
Wed 04:44:56 PM 33.8206 -84.5214 341° North 437 503 34,000  Level Atlanta Center
Wed 04:45:56 PM 33.9372 -84.5747 339° North 442 509 34,000  Level Atlanta Center
Wed 04:46:56 PM 34.0536 -84.6281 339° North 442 509 34,000 -150 Level Atlanta Center
Wed 04:47:56 PM 34.1850 -84.6842 341° North 451 519 33,700 -600 Descending Atlanta Center
Wed 04:48:56 PM 34.2953 -84.7428 336° Northwest 440 506 32,800 -950 Descending Atlanta Center
Wed 04:49:56 PM 34.3992 -84.8217 328° Northwest 430 495 31,800 -1,000 Descending Atlanta Center
Wed 04:50:56 PM 34.4989 -84.8958 329° Northwest 430 495 30,800 -900 Descending Atlanta Center
Wed 04:51:56 PM 34.6006 -84.9725 328° Northwest 435 501 30,000 -400 Descending Atlanta Center
Wed 04:52:56 PM 34.6939 -85.0442 328° Northwest 435 501 30,000 -200 Level Atlanta Center
Wed 04:53:56 PM 34.7933 -85.1239 327° Northwest 435 501 29,600 -650 Descending Atlanta Center
Wed 04:54:56 PM 34.8928 -85.2036 327° Northwest 435 501 28,700 -950 Descending Atlanta Center
Wed 04:55:56 PM 34.9944 -85.2786 329° Northwest 435 501 27,700 -1,000 Descending Atlanta Center
Wed 04:56:56 PM 35.0917 -85.3561 327° Northwest 429 494 26,700 -1,000 Descending Atlanta Center
Wed 04:57:56 PM 35.1825 -85.4389 323° Northwest 429 494 25,700 -1,000 Descending Atlanta Center
Wed 04:58:44 PM 35.2447 -85.5189 314° West 415 478 24,900 -944 Descending Memphis Center
Wed 04:59:44 PM 35.3236 -85.6211 313° West 415 478 24,000 -750 Descending Memphis Center
Wed 05:00:44 PM 35.4047 -85.7211 315° West 415 478 23,400 -2,100 Descending Memphis Center
Wed 05:01:44 PM 35.4900 -85.8311 314° West 410 472 19,800 -3,200 Descending Memphis Center
Wed 05:02:44 PM 35.5644 -85.9292 313° West 405 466 17,000 -2,800 Descending Memphis Center
Wed 05:03:44 PM 35.6219 -86.0231 307° West 393 452 14,200 -2,200 Descending Memphis Center
Wed 05:04:44 PM 35.6650 -86.1231 298° West 361 415 12,600 -1,100 Descending Memphis Center
Wed 05:05:44 PM 35.7222 -86.2119 308° West 346 398 12,000 -900 Descending Memphis Center
Wed 05:06:44 PM 35.7753 -86.2989 307° West 327 376 10,800 -1,367 Descending Memphis Center
Wed 05:08:44 PM 35.8767 -86.4681 307° West 298 343 7,900 -1,667 Descending Memphis Center
Wed 05:09:44 PM 35.9228 -86.5428 307° West 283 326 5,800 -1,850 Descending Memphis Center
Wed 05:10:44 PM 35.9686 -86.6178 307° West 283 326 4,200 -1,550 Descending Memphis Center
Wed 05:11:44 PM 36.0142 -86.6719 316° Northwest 258 297 2,700 -1,000 Descending Memphis Center
Wed 05:12:44 PM 36.0625 -86.6903 343° North 207 238 2,200 -850 Descending Memphis Center
Wed 05:13:44 PM 36.0975 -86.6733 21° North 151 174 1,000 -750 Descending Memphis Center
Wed 05:14:44 PM 36.1350 -86.6742 359° North 144 166 700 -300 Descending Memphis Center

Login

Don't have an account? Register now (free) for customized features, flight alerts, and more!